createdAt,value
2022-12-08T00:02:02.009Z,4.11
2022-12-08T00:04:30.579Z,4.08
2022-12-08T00:07:17.300Z,4.08
2022-12-08T00:09:45.621Z,4.09
2022-12-08T00:12:17.299Z,4.05
2022-12-08T00:14:47.059Z,4.10
2022-12-08T00:17:17.417Z,4.11
2022-12-08T00:19:46.127Z,4.12
2022-12-08T00:22:15.848Z,4.16
2022-12-08T00:24:48.004Z,4.09
2022-12-08T00:27:17.153Z,4.11
2022-12-08T00:29:46.133Z,4.11
2022-12-08T00:32:14.732Z,4.14
2022-12-08T00:34:43.033Z,4.15
2022-12-08T00:37:11.213Z,4.13
2022-12-08T00:39:39.733Z,4.15
2022-12-08T00:42:13.983Z,4.17
2022-12-08T00:44:44.174Z,4.11
2022-12-08T00:47:14.500Z,4.14
2022-12-08T00:49:43.222Z,4.11
2022-12-08T00:52:13.410Z,4.01
2022-12-08T00:54:42.063Z,4.11
2022-12-08T00:57:10.787Z,3.93
2022-12-08T00:59:39.028Z,4.05
2022-12-08T01:02:07.508Z,4.11
2022-12-08T01:04:35.709Z,4.05
2022-12-08T01:07:03.819Z,3.93
2022-12-08T01:09:31.778Z,4.02
2022-12-08T01:12:00.505Z,4.03
2022-12-08T01:14:28.964Z,4.01
2022-12-08T01:16:57.168Z,4.06
2022-12-08T01:19:26.038Z,4.03
2022-12-08T01:21:54.087Z,4.09
2022-12-08T01:24:22.768Z,4.14
2022-12-08T01:26:52.484Z,4.12
2022-12-08T01:29:20.744Z,4.18
2022-12-08T01:31:49.379Z,4.18
2022-12-08T01:34:17.823Z,4.21
2022-12-08T01:36:46.034Z,4.20
2022-12-08T01:39:19.668Z,4.17
2022-12-08T01:41:48.348Z,4.22
2022-12-08T01:44:16.789Z,4.19
2022-12-08T01:46:48.229Z,4.21
2022-12-08T01:49:23.548Z,4.18
2022-12-08T01:52:16.937Z,4.12
2022-12-08T01:54:53.711Z,4.13
2022-12-08T01:57:31.254Z,4.14
2022-12-08T02:00:06.808Z,4.12
2022-12-08T02:02:50.657Z,4.16
2022-12-08T02:05:21.390Z,4.19
2022-12-08T02:07:50.181Z,4.19
2022-12-08T02:10:22.350Z,4.13
2022-12-08T02:12:54.031Z,4.19
2022-12-08T02:15:47.654Z,4.20
2022-12-08T02:18:23.448Z,4.23
2022-12-08T02:21:01.889Z,4.27
2022-12-08T02:23:30.403Z,4.28
2022-12-08T02:26:35.524Z,4.24
2022-12-08T02:29:15.444Z,4.25
2022-12-08T02:32:03.783Z,4.26
2022-12-08T02:34:45.309Z,4.31
2022-12-08T02:37:28.719Z,4.34
2022-12-08T02:40:12.528Z,4.37
2022-12-08T02:42:55.709Z,4.42
2022-12-08T02:45:30.374Z,4.44
2022-12-08T02:48:00.494Z,4.45
2022-12-08T02:50:29.066Z,4.43
2022-12-08T02:52:57.219Z,4.38
2022-12-08T02:55:29.268Z,4.32
2022-12-08T02:58:22.608Z,4.31
2022-12-08T03:01:08.670Z,4.27
2022-12-08T03:03:58.298Z,4.23
2022-12-08T03:06:47.656Z,4.22
2022-12-08T03:09:49.279Z,4.12
2022-12-08T03:12:31.065Z,4.15
2022-12-08T03:15:04.759Z,4.17
2022-12-08T03:17:32.663Z,4.11
2022-12-08T03:20:05.404Z,4.09
2022-12-08T03:22:33.678Z,4.08
2022-12-08T03:25:02.301Z,4.10
2022-12-08T03:27:31.979Z,4.01
2022-12-08T03:30:02.692Z,4.03
2022-12-08T03:32:40.473Z,4.12
2022-12-08T03:35:16.809Z,4.05
2022-12-08T03:37:45.368Z,3.84
2022-12-08T03:40:17.565Z,3.76
2022-12-08T03:42:46.043Z,3.79
2022-12-08T03:45:14.646Z,3.84
2022-12-08T03:47:43.205Z,3.85
2022-12-08T03:50:12.243Z,3.94
2022-12-08T03:52:40.845Z,3.92
2022-12-08T03:55:09.473Z,3.88
2022-12-08T03:57:37.639Z,3.97
2022-12-08T04:00:09.868Z,3.98
2022-12-08T04:02:38.499Z,4.03
2022-12-08T04:05:07.030Z,4.04
2022-12-08T04:07:35.108Z,4.05
2022-12-08T04:10:03.897Z,3.96
2022-12-08T04:12:32.468Z,3.98
2022-12-08T04:15:00.951Z,3.99
2022-12-08T04:17:29.389Z,3.99
2022-12-08T04:19:57.473Z,4.03
2022-12-08T04:22:25.643Z,4.02
2022-12-08T04:24:54.314Z,3.91
2022-12-08T04:27:22.928Z,3.75
2022-12-08T04:29:51.368Z,3.64
2022-12-08T04:32:19.426Z,3.55
2022-12-08T04:34:47.831Z,3.49
2022-12-08T04:37:16.349Z,3.73
2022-12-08T04:39:44.988Z,3.75
2022-12-08T04:42:13.188Z,3.80
2022-12-08T04:44:41.428Z,3.85
2022-12-08T04:47:10.210Z,3.91
2022-12-08T04:49:38.846Z,3.79
2022-12-08T04:52:07.111Z,3.85
2022-12-08T04:54:35.190Z,3.94
2022-12-08T04:57:03.676Z,3.97
2022-12-08T04:59:31.908Z,3.99
2022-12-08T05:02:00.579Z,3.99
2022-12-08T05:04:28.944Z,4.02
2022-12-08T05:06:57.538Z,4.00
2022-12-08T05:09:25.883Z,4.04
2022-12-08T05:11:54.193Z,4.06
2022-12-08T05:14:22.879Z,4.02
2022-12-08T05:16:50.910Z,3.93
2022-12-08T05:19:19.286Z,3.92
2022-12-08T05:21:47.194Z,3.78
2022-12-08T05:24:15.384Z,3.78
2022-12-08T05:26:43.881Z,3.68
2022-12-08T05:29:12.518Z,3.75
2022-12-08T05:31:41.108Z,3.65
2022-12-08T05:34:12.238Z,3.58
2022-12-08T05:36:40.813Z,3.61
2022-12-08T05:39:14.738Z,3.54
2022-12-08T05:41:42.942Z,3.62
2022-12-08T05:44:11.238Z,3.58
2022-12-08T05:46:39.743Z,3.61
2022-12-08T05:49:07.854Z,3.66
2022-12-08T05:51:36.409Z,3.39
2022-12-08T16:04:14.249Z,5.24
2022-12-08T16:09:34.041Z,5.55
2022-12-08T16:12:21.459Z,5.66
2022-12-08T16:17:39.332Z,5.88
2022-12-08T16:20:16.159Z,5.95
2022-12-08T16:22:54.509Z,6.03
2022-12-08T16:25:52.685Z,6.12
2022-12-08T16:31:15.783Z,6.24
2022-12-08T16:33:45.374Z,6.27
2022-12-08T16:36:13.557Z,6.29
2022-12-08T16:38:41.835Z,6.30
2022-12-08T16:41:36.280Z,6.30
2022-12-08T16:44:06.882Z,6.31
2022-12-08T16:46:36.677Z,6.35
2022-12-08T16:49:08.934Z,6.35
2022-12-08T16:51:37.277Z,6.39
2022-12-08T16:54:05.574Z,6.39
2022-12-08T16:56:33.856Z,6.40
2022-12-08T16:59:03.204Z,6.40
2022-12-08T17:01:31.721Z,6.40
2022-12-08T17:04:29.892Z,6.40
2022-12-08T17:06:51.770Z,6.36
2022-12-08T17:09:20.325Z,6.35
2022-12-08T17:11:48.850Z,6.34
2022-12-08T17:14:17.485Z,6.36
2022-12-08T17:16:46.101Z,6.33
2022-12-08T17:19:15.860Z,6.32
2022-12-08T17:21:45.121Z,6.33
2022-12-08T17:24:15.979Z,6.34
2022-12-08T17:26:49.004Z,6.36
2022-12-08T17:29:19.461Z,6.37
2022-12-08T17:31:48.218Z,6.39
2022-12-08T17:34:16.680Z,6.39
2022-12-08T17:36:44.762Z,6.39
2022-12-08T17:39:18.389Z,6.38
2022-12-08T17:41:47.953Z,6.37
2022-12-08T17:44:18.970Z,6.37
2022-12-08T17:46:52.570Z,6.36
2022-12-08T17:49:24.144Z,6.36
2022-12-08T17:51:55.323Z,6.33
2022-12-08T17:54:24.613Z,6.32
2022-12-08T17:56:53.621Z,6.32
2022-12-08T17:59:22.335Z,6.32
2022-12-08T18:01:53.159Z,6.31
2022-12-08T18:04:22.628Z,6.27
2022-12-08T18:06:50.979Z,6.24
2022-12-08T18:09:19.818Z,6.23
2022-12-08T18:11:48.301Z,6.24
2022-12-08T18:14:17.142Z,6.23
2022-12-08T18:16:46.927Z,6.23
2022-12-08T18:19:15.539Z,6.25
2022-12-08T18:21:43.781Z,6.26
2022-12-08T18:24:23.583Z,6.27
2022-12-08T18:26:52.981Z,6.28
2022-12-08T18:29:23.029Z,6.28
2022-12-08T18:31:51.440Z,6.24
2022-12-08T18:34:19.510Z,6.23
2022-12-08T18:36:48.578Z,6.23
2022-12-08T18:39:28.871Z,6.22
2022-12-08T18:41:59.699Z,6.23
2022-12-08T18:44:28.604Z,6.23
2022-12-08T18:46:57.204Z,6.23
2022-12-08T18:49:27.248Z,6.22
2022-12-08T18:51:56.075Z,6.20
2022-12-08T18:54:37.119Z,6.19
2022-12-08T18:57:13.166Z,6.19
2022-12-08T18:59:41.756Z,6.21
2022-12-08T19:02:12.972Z,6.19
2022-12-08T19:04:42.965Z,6.20
2022-12-08T19:07:12.863Z,6.20
2022-12-08T19:09:43.021Z,6.20
2022-12-08T19:12:13.626Z,6.20
2022-12-08T19:14:42.103Z,6.21
2022-12-08T19:17:10.861Z,6.21
2022-12-08T19:19:39.421Z,6.21
2022-12-08T19:22:07.941Z,6.22
2022-12-08T19:24:37.471Z,6.22
2022-12-08T19:27:06.438Z,6.22
2022-12-08T19:29:35.010Z,6.23
2022-12-08T19:32:05.380Z,6.21
2022-12-08T19:34:34.067Z,6.22
2022-12-08T19:37:02.670Z,6.23
2022-12-08T19:39:49.278Z,6.24
2022-12-08T19:42:39.582Z,6.24
2022-12-08T19:45:13.429Z,6.24
2022-12-08T19:47:42.194Z,6.24
2022-12-08T19:50:30.838Z,6.24
2022-12-08T19:52:59.665Z,6.24
2022-12-08T19:55:28.468Z,6.23
2022-12-08T19:58:02.554Z,6.24
2022-12-08T20:00:31.793Z,6.24
2022-12-08T20:03:01.790Z,6.24
2022-12-08T20:05:32.086Z,6.22
2022-12-08T20:08:01.131Z,6.23
2022-12-08T20:10:34.465Z,6.21
2022-12-08T20:13:22.060Z,6.21
2022-12-08T20:15:50.744Z,6.22
2022-12-08T20:18:19.361Z,6.21
2022-12-08T20:20:48.059Z,6.21
2022-12-08T20:23:16.865Z,6.21
2022-12-08T20:25:46.861Z,6.19
2022-12-08T20:28:15.597Z,6.18
2022-12-08T20:30:47.588Z,6.17
2022-12-08T20:33:20.667Z,6.17
2022-12-08T20:36:00.034Z,6.16
2022-12-08T20:38:29.441Z,6.17
2022-12-08T20:40:58.435Z,6.16
2022-12-08T20:43:27.476Z,6.17
2022-12-08T20:45:55.621Z,6.18
2022-12-08T20:48:24.297Z,6.19
2022-12-08T20:50:53.159Z,6.19
2022-12-08T20:53:21.910Z,6.16
2022-12-08T20:55:50.644Z,6.18
2022-12-08T20:58:18.908Z,6.17
2022-12-08T21:00:47.749Z,6.18
2022-12-08T21:03:18.506Z,6.18
2022-12-08T21:05:54.632Z,6.18
2022-12-08T21:08:26.580Z,6.19
2022-12-08T21:10:56.734Z,6.20
2022-12-08T21:13:25.934Z,6.20
2022-12-08T21:15:54.697Z,6.19
2022-12-08T21:18:24.491Z,6.20
2022-12-08T21:20:54.670Z,6.20
2022-12-08T21:23:23.007Z,6.18
2022-12-08T21:25:51.205Z,6.13
2022-12-08T21:28:19.971Z,6.13
2022-12-08T21:30:48.126Z,6.13
2022-12-08T21:33:16.636Z,6.14
2022-12-08T21:35:45.608Z,6.12
2022-12-08T21:38:13.962Z,6.13
2022-12-08T21:40:42.223Z,6.14
2022-12-08T21:43:10.755Z,6.13
2022-12-08T21:45:38.813Z,6.14
2022-12-08T21:48:11.483Z,6.14
2022-12-08T21:50:40.803Z,6.14
2022-12-08T21:53:09.529Z,6.16
2022-12-08T21:55:38.223Z,6.16
2022-12-08T21:58:06.333Z,6.16
2022-12-08T22:00:35.260Z,6.15
2022-12-08T22:03:04.849Z,6.16
2022-12-08T22:05:36.189Z,6.16
2022-12-08T22:08:05.093Z,6.17
2022-12-08T22:10:33.631Z,6.16
2022-12-08T22:13:02.198Z,6.13
2022-12-08T22:15:31.041Z,6.15
2022-12-08T22:17:59.304Z,6.11
2022-12-08T22:20:27.820Z,6.09
2022-12-08T22:22:56.045Z,6.10
2022-12-08T22:25:24.528Z,6.08
2022-12-08T22:27:52.779Z,6.05
2022-12-08T22:30:22.155Z,6.04
2022-12-08T22:32:50.967Z,6.06
2022-12-08T22:35:19.596Z,6.06
2022-12-08T22:37:50.791Z,6.06
2022-12-08T22:40:18.952Z,6.06
2022-12-08T22:42:47.293Z,6.07
2022-12-08T22:45:15.327Z,6.08
2022-12-08T22:47:43.529Z,6.08
2022-12-08T22:50:12.066Z,6.07
2022-12-08T22:52:40.531Z,6.06
2022-12-08T22:55:09.449Z,6.07
2022-12-08T22:57:37.840Z,6.05
2022-12-08T23:00:07.248Z,6.06
2022-12-08T23:02:37.926Z,6.05
2022-12-08T23:05:06.817Z,6.04
2022-12-08T23:07:35.628Z,6.04
2022-12-08T23:10:05.633Z,6.04
2022-12-08T23:12:34.415Z,6.05
2022-12-08T23:15:02.655Z,6.04
2022-12-08T23:17:32.086Z,6.01
2022-12-08T23:20:00.494Z,5.99
2022-12-08T23:22:28.830Z,6.01
2022-12-08T23:24:57.084Z,6.00
2022-12-08T23:27:25.771Z,6.01
2022-12-08T23:29:54.196Z,6.00
2022-12-08T23:32:22.987Z,6.01
2022-12-08T23:34:51.107Z,5.99
2022-12-08T23:37:19.303Z,5.96
2022-12-08T23:39:47.488Z,5.89
2022-12-08T23:42:15.884Z,5.86
2022-12-08T23:44:44.209Z,5.80
2022-12-08T23:47:12.653Z,5.80
2022-12-08T23:49:40.738Z,5.79
2022-12-08T23:52:13.763Z,5.82
2022-12-08T23:54:42.374Z,5.83
2022-12-08T23:57:10.790Z,5.81
2022-12-08T23:59:39.602Z,5.72
